Terminal Aerodrome Forecast
Issued by NWS

Home | Current Version | Previous Version | Text Only | Print | Product List | Glossary On
Versions: 1 2 3 4 5 6 7 8 9 10 11 12 13 14 15 16 17 18 19
952
FTUS45 KRIW 241720
TAFCPR
TAF
KCPR 241720Z 2418/2518 24008KT P6SM FEW040 SCT250
     FM241900 22011KT P6SM SCT200
     FM251400 22014G22KT P6SM SCT080 BKN150=

USA.gov is the U.S. government's official web portal to all federal, state and local government web resources and services.